ADDS METAR Data INFO
IDs: Format: Raw Decoded Include TAF

Data at: 0744 UTC 23 Jul 2018

KTEW 230735Z AUTO 28003KT 10SM OVC006 18/16 A2986 RMK AO2 T01750161
KTEW 230715Z AUTO 29004KT 10SM OVC006 18/16 A2986 RMK AO2 T01750161
KTEW 230655Z AUTO 28003KT 10SM OVC006 18/16 A2986 RMK AO2 T01750162
KTEW 230636Z AUTO 00000KT 5SM BR OVC006 17/16 A2986 RMK AO2 T01730161
KTEW 230615Z AUTO 00000KT 7SM OVC006 17/16 A2986 RMK AO2 T01730160
KTEW 230555Z AUTO 34004KT 5SM -DZ OVC008 18/16 A2986 RMK AO2 T01750160 10195 20175 402210175
KTEW 230535Z AUTO 33005KT 10SM SCT010 OVC019 18/16 A2987 RMK AO2 T01800157
KTEW 230515Z AUTO 31003KT 10SM OVC019 18/16 A2988 RMK AO2 T01780156
KTEW 230455Z AUTO 33004KT 10SM BKN021 OVC034 18/16 A2988 RMK AO2 T01770156
KTEW 230435Z AUTO 33003KT 10SM SCT023 BKN034 OVC050 18/16 A2987 RMK AO2 T01760156
KTEW 230415Z AUTO 00000KT 10SM SCT034 OVC050 18/16 A2988 RMK AO2 T01760155
KTEW 230355Z AUTO 00000KT 10SM SCT034 BKN041 OVC048 18/15 A2989 RMK AO2 T01770152
KTEW 230335Z AUTO 31003KT 10SM SCT031 BKN039 OVC050 18/15 A2989 RMK AO2 T01780151
KTEW 230315Z AUTO 32006KT 10SM SCT021 BKN029 OVC036 18/15 A2989 RMK AO2 T01800150
KTEW 230255Z AUTO 33007KT 10SM SCT023 BKN036 OVC050 19/15 A2990 RMK AO2 T01900147
KTEW 230235Z AUTO 31006KT 10SM SCT043 OVC055 19/15 A2989 RMK AO2 T01920146
KTEW 230215Z AUTO 33004KT 10SM SCT037 BKN055 OVC075 20/14 A2989 RMK AO2 T01950144
KTEW 230155Z AUTO 30003KT 10SM OVC039 19/16 A2989 RMK AO2 T01910155
KTEW 230135Z AUTO 00000KT 10SM BKN040 OVC046 19/15 A2989 RMK AO2 T01920153
KTEW 230115Z AUTO 28004KT 10SM SCT040 BKN048 OVC055 19/15 A2989 RMK AO2 T01930151
KTEW 230055Z AUTO 32003KT 10SM SCT050 SCT060 OVC075 19/15 A2989 RMK AO2 T01900150
KTEW 230035Z AUTO 33003KT 10SM SCT050 BKN065 OVC110 19/15 A2989 RMK AO2 T01900151
KTEW 230015Z AUTO 00000KT 10SM BKN065 OVC110 19/15 A2989 RMK AO2 T01900149
KTEW 222355Z AUTO 00000KT 10SM OVC075 19/15 A2989 RMK AO2 T01910147 10221 20187
KTEW 222335Z AUTO 01004KT 10SM BKN065 OVC075 19/15 A2989 RMK AO2 T01930148
KTEW 222315Z AUTO 01004KT 10SM SCT049 OVC060 19/15 A2989 RMK AO2 T01910150
KTEW 222255Z AUTO 02005KT 10SM SCT018 BKN046 OVC050 19/15 A2988 RMK AO2 T01890151
KTEW 222235Z AUTO 01009G18KT 10SM SCT018 SCT022 OVC044 19/15 A2989 RMK AO2 T01910148
KTEW 222215Z AUTO 36008G16KT 10SM SCT034 BKN044 OVC060 20/14 A2988 RMK AO2 T01990141
KTEW 222155Z AUTO 04006KT 10SM SCT042 OVC060 21/13 A2988 RMK AO2 T02070131
KTEW 222135Z AUTO 04009KT 10SM SCT043 OVC060 21/13 A2987 RMK AO2 T02120130
KTEW 222115Z AUTO 03008G15KT 10SM BKN043 BKN050 BKN080 21/13 A2987 RMK AO2 T02140131
KTEW 222055Z AUTO 04009KT 10SM SCT120 22/13 A2987 RMK AO2 T02180129
KTEW 222035Z AUTO 06008KT 10SM SCT120 21/15 A2987 RMK AO2 T02130146
KTEW 222015Z AUTO 03009KT 10SM SCT026 SCT075 21/15 A2987 RMK AO2 T02120148
KTEW 221955Z AUTO 04009KT 10SM SCT026 SCT075 21/15 A2987 RMK AO2 T02120151
KTEW 221935Z AUTO 04010KT 10SM SCT028 BKN035 BKN048 22/16 A2987 RMK AO2 T02160155
KTEW 221915Z AUTO 04008KT 010V070 10SM SCT023 SCT035 SCT065 22/16 A2987 RMK AO2 T02200155
KTEW 221855Z AUTO 05006KT 10SM SCT021 SCT041 BKN060 21/16 A2987 RMK AO2 T02090157
KTEW 221835Z AUTO 06007KT 10SM SCT021 SCT043 BKN060 21/16 A2987 RMK AO2 T02050160
KTEW 221815Z AUTO 06004KT 10SM SCT037 SCT044 OVC050 19/17 A2987 RMK AO2 T01940166
KTEW 221755Z AUTO 00000KT 10SM -RA SCT027 BKN035 OVC045 19/16 A2987 RMK AO2 T01850163 10219 20185
KTEW 221735Z AUTO 08007G15KT 10SM -RA BKN026 OVC034 19/16 A2988 RMK AO2 T01910157
KTEW 221715Z AUTO 07012G16KT 10SM BKN027 BKN033 OVC043 21/16 A2987 RMK AO2 T02060160
KTEW 221655Z AUTO 05008KT 10SM SCT019 BKN034 OVC043 22/17 A2986 RMK AO2 T02150166
KTEW 221635Z AUTO 04009KT 10SM SCT019 BKN036 OVC044 22/17 A2986 RMK AO2 T02160173
KTEW 221615Z AUTO 04010KT 10SM SCT015 BKN021 OVC035 21/18 A2985 RMK AO2 T02130178
KTEW 221555Z AUTO 04009KT 10SM SCT013 BKN036 OVC060 22/19 A2985 RMK AO2 T02190189
KTEW 221535Z AUTO 05006KT 10SM SCT013 BKN020 OVC045 21/19 A2984 RMK AO2 T02110192
KTEW 221515Z AUTO 02006KT 7SM RA BKN013 OVC018 21/19 A2984 RMK AO2 T02070187
KTEW 221455Z AUTO 04005KT 7SM -DZ BKN014 OVC023 21/19 A2984 RMK AO2 T02120189
KTEW 221435Z AUTO 04005KT 7SM -RA BKN010 OVC016 21/19 A2984 RMK AO2 T02100187
KTEW 221415Z AUTO 02004KT 7SM -RA BKN010 OVC015 21/19 A2984 RMK AO2 T02070188
KTEW 221355Z AUTO 02004KT 7SM -RA BKN008 OVC013 20/19 A2984 RMK AO2 T02020186
KTEW 221335Z AUTO 03003KT 7SM OVC006 20/19 A2984 RMK AO2 T02010185
KTEW 221315Z AUTO 02005KT 7SM BKN006 OVC100 20/19 A2984 RMK AO2 T02000185
KTEW 221255Z AUTO 04003KT 7SM SCT006 OVC100 20/19 A2983 RMK AO2 T02000185
KTEW 221235Z AUTO 03003KT 7SM BKN006 OVC110 20/19 A2983 RMK AO2 T01980185
KTEW 221215Z AUTO 04003KT 5SM BR OVC006 20/19 A2983 RMK AO2 T01970185
KTEW 221155Z AUTO 03005KT 5SM BR OVC006 20/18 A2982 RMK AO2 T01970184 10206 20195
KTEW 221135Z AUTO 04004KT 5SM BR OVC004 20/18 A2982 RMK AO2 T01950183
KTEW 221115Z AUTO 03005KT 4SM BR OVC004 20/18 A2981 RMK AO2 T01950183
KTEW 221055Z AUTO 04005KT 5SM BR OVC004 20/18 A2981 RMK AO2 T01950183
KTEW 221035Z AUTO 05004KT 5SM BR OVC004 20/19 A2980 RMK AO2 T01960185
KTEW 221015Z AUTO 04004KT 5SM BR OVC004 20/19 A2979 RMK AO2 T01970186
KTEW 220955Z AUTO 05005KT 5SM BR OVC004 20/19 A2979 RMK AO2 T01960186
KTEW 220935Z AUTO 05003KT 5SM BR BKN006 BKN050 OVC110 20/19 A2979 RMK AO2 T01950185
KTEW 220915Z AUTO 03003KT 5SM BR SCT006 SCT050 OVC095 20/19 A2979 RMK AO2 T01960185
KTEW 220856Z AUTO 04004KT 7SM SCT006 BKN044 OVC095 20/19 A2979 RMK AO2 T02000187
KTEW 220835Z AUTO 05004KT 7SM SCT006 BKN044 OVC095 20/19 A2979 RMK AO2 T02010190
KTEW 220815Z AUTO 04004KT 7SM SCT006 BKN011 OVC095 20/19 A2979 RMK AO2 T02030191
KTEW 220755Z AUTO 05004KT 7SM BKN006 OVC011 21/19 A2979 RMK AO2 T02050193
KTEW 220735Z AUTO 03003KT 7SM OVC009 21/19 A2979 RMK AO2 T02050191
KTEW 220715Z AUTO 04003KT 7SM BKN009 BKN013 OVC065 21/19 A2979 RMK AO2 T02050192
KTEW 220655Z AUTO 05003KT 7SM OVC009 21/19 A2979 RMK AO2 T02060192
KTEW 220635Z AUTO 03005KT 7SM OVC007 21/19 A2979 RMK AO2 T02050192
KTEW 220615Z AUTO 03003KT 7SM OVC007 20/19 A2979 RMK AO2 T02040191
KTEW 220555Z AUTO 03003KT 7SM BKN007 OVC011 20/19 A2980 RMK AO2 T02020190 10216 20197 402460185
KTEW 220535Z AUTO 03003KT 7SM SCT011 OVC050 20/19 A2980 RMK AO2 T02000187
KTEW 220515Z AUTO 03003KT 7SM OVC050 20/19 A2980 RMK AO2 T02000186
KTEW 220455Z AUTO 05003KT 10SM BKN050 OVC065 20/19 A2980 RMK AO2 T02000186
KTEW 220435Z AUTO 04003KT 10SM BKN050 OVC085 20/19 A2980 RMK AO2 T01980186
KTEW 220415Z AUTO 00000KT 10SM BKN050 OVC085 20/19 A2980 RMK AO2 T01970185
KTEW 220355Z AUTO 00000KT 10SM SCT050 OVC085 20/19 A2981 RMK AO2 T01980185
KTEW 220336Z AUTO 03003KT 10SM SCT020 SCT050 OVC085 20/19 A2981 RMK AO2 T01990186
KTEW 220315Z AUTO 00000KT 10SM SCT085 20/18 A2981 RMK AO2 T01980184
KTEW 220255Z AUTO 02003KT 10SM SCT085 20/19 A2981 RMK AO2 T01990185
KTEW 220235Z AUTO 00000KT 10SM SCT016 SCT028 BKN085 20/19 A2982 RMK AO2 T02000185
KTEW 220215Z AUTO 04003KT 10SM SCT016 SCT029 BKN120 20/19 A2982 RMK AO2 T02000185
KTEW 220155Z AUTO 06003KT 10SM SCT031 SCT085 20/19 A2981 RMK AO2 T02020185
KTEW 220135Z AUTO 06003KT 10SM SCT023 BKN031 21/19 A2980 RMK AO2 T02060185
KTEW 220115Z AUTO 05004KT 10SM OVC023 21/19 A2979 RMK AO2 T02100187
KTEW 220055Z AUTO 07003KT 10SM SCT016 BKN021 OVC080 21/19 A2979 RMK AO2 T02100187
KTEW 220035Z AUTO 08004KT 10SM SCT016 SCT070 OVC080 21/19 A2979 RMK AO2 T02120186
KTEW 220015Z AUTO 07004KT 10SM SCT020 BKN065 OVC090 22/19 A2978 RMK AO2 T02150186
KTEW 212355Z AUTO 10003KT 10SM SCT019 BKN050 OVC080 22/19 A2978 RMK AO2 T02170186 10246 20217
KTEW 212335Z AUTO 10005KT 10SM SCT017 SCT021 OVC060 22/19 A2978 RMK AO2 T02180187
KTEW 212315Z AUTO 00000KT 10SM SCT015 OVC060 22/19 A2978 RMK AO2 T02200192
KTEW 212255Z AUTO 09003KT 10SM SCT050 OVC060 22/19 A2977 RMK AO2 T02220194
KTEW 212235Z AUTO 11004KT 10SM SCT050 BKN060 OVC070 22/19 A2977 RMK AO2 T02220194
KTEW 212215Z AUTO 11005KT 10SM SCT023 SCT030 OVC060 22/19 A2976 RMK AO2 T02220191
KTEW 212155Z AUTO 11004KT 10SM -RA SCT021 SCT037 OVC085 23/20 A2976 RMK AO2 T02260197
KTEW 212135Z AUTO 00000KT 10SM -RA SCT065 OVC085 23/20 A2976 RMK AO2 T02270195
KTEW 212115Z AUTO 12003KT 10SM BKN055 OVC075 23/19 A2976 RMK AO2 T02260192
KTEW 212055Z AUTO 00000KT 10SM SCT013 SCT019 OVC055 23/20 A2976 RMK AO2 T02250196
KTEW 212035Z AUTO 12003KT 7SM SCT019 BKN055 OVC090 23/20 A2976 RMK AO2 T02260195
KTEW 212015Z AUTO 08003KT 10SM SCT050 BKN065 BKN075 23/19 A2976 RMK AO2 T02260193
KTEW 211955Z AUTO 09004KT 10SM SCT024 BKN055 BKN075 23/19 A2976 RMK AO2 T02260193